Time;durP1;ratioP1;P1;durP2;ratioP2;P2;SDS_P1;SDS_P2;PMS_P1;PMS_P2;Temp;Humidity;BMP_temperature;BMP_pressure;BME280_temperature;BME280_humidity;BME280_pressure;Samples;Min_cycle;Max_cycle;Signal;HPM_P1;HPM_P2
2022/11/26 00:02:27;;;;;;;29.60;16.12;;;10.70;94.50;;;;;;1905489;75;21059;-42
2022/11/26 00:04:57;;;;;;;;;;;10.70;94.50;;;;;;1908309;75;21459;-44
2022/11/26 00:07:29;;;;;;;27.65;15.30;;;10.70;94.60;;;;;;1905373;75;20595;-42
2022/11/26 00:09:59;;;;;;;27.00;17.20;;;10.70;94.50;;;;;;1905351;75;21198;-44
2022/11/26 00:12:31;;;;;;;27.25;15.88;;;10.70;94.60;;;;;;1905369;75;21321;-43
2022/11/26 00:15:02;;;;;;;28.38;16.82;;;10.80;94.60;;;;;;1905480;74;21159;-43
2022/11/26 00:17:32;;;;;;;32.30;17.50;;;10.80;94.50;;;;;;1904736;74;21166;-43
2022/11/26 00:20:01;;;;;;;30.52;16.62;;;10.80;94.50;;;;;;1905478;75;20995;-43
2022/11/26 00:22:31;;;;;;;29.25;17.50;;;10.90;94.60;;;;;;1905344;74;21075;-42
2022/11/26 00:25:00;;;;;;;28.57;15.98;;;10.90;94.60;;;;;;1905378;75;21139;-43
2022/11/26 00:27:30;;;;;;;26.50;15.60;;;10.90;94.50;;;;;;1905316;75;21640;-43
2022/11/26 00:29:59;;;;;;;27.90;14.93;;;10.90;94.50;;;;;;1905470;75;21216;-41
2022/11/26 00:32:29;;;;;;;26.75;15.48;;;10.90;94.60;;;;;;1905292;75;21246;-44
2022/11/26 00:34:58;;;;;;;31.87;16.65;;;10.90;94.60;;;;;;1905289;75;21181;-43
2022/11/26 00:37:29;;;;;;;28.47;15.78;;;10.90;94.60;;;;;;1905325;75;21612;-43
2022/11/26 00:39:58;;;;;;;26.15;14.80;;;10.90;94.90;;;;;;1905426;74;21585;-42
2022/11/26 00:42:28;;;;;;;23.87;15.65;;;10.90;94.80;;;;;;1905428;75;21224;-43
2022/11/26 00:44:57;;;;;;;24.20;13.98;;;10.90;94.70;;;;;;1905384;75;21205;-41
2022/11/26 00:47:26;;;;;;;26.68;16.15;;;10.90;94.60;;;;;;1905292;74;21228;-42
2022/11/26 00:49:55;;;;;;;28.50;15.75;;;10.90;94.60;;;;;;1905461;75;21541;-44
2022/11/26 00:52:30;;;;;;;23.35;14.55;;;10.90;94.60;;;;;;1905259;75;21155;-43
2022/11/26 00:54:59;;;;;;;28.05;15.80;;;10.90;94.60;;;;;;1905426;74;21684;-43
2022/11/26 00:57:28;;;;;;;28.38;16.12;;;10.80;94.90;;;;;;1923894;74;21550;-43
2022/11/26 00:59:58;;;;;;;24.95;14.73;;;10.80;94.60;;;;;;1924688;74;21188;-42
2022/11/26 01:02:27;;;;;;;29.05;15.23;;;10.80;94.70;;;;;;1924671;74;21135;-44
2022/11/26 01:04:56;;;;;;;27.75;15.72;;;10.80;94.80;;;;;;1924759;74;21247;-43
2022/11/26 01:07:25;;;;;;;25.32;15.38;;;10.90;94.80;;;;;;1924781;74;21248;-42
2022/11/26 01:09:54;;;;;;;26.42;15.40;;;10.80;94.70;;;;;;1924688;74;21229;-43
2022/11/26 01:12:23;;;;;;;27.60;15.15;;;10.80;94.60;;;;;;1924660;74;21078;-44
2022/11/26 01:14:53;;;;;;;25.37;14.25;;;10.70;94.90;;;;;;1924825;74;21125;-42
2022/11/26 01:17:22;;;;;;;28.98;16.55;;;10.70;94.70;;;;;;1924784;74;21638;-42
2022/11/26 01:19:51;;;;;;;29.25;16.10;;;10.70;94.80;;;;;;1924781;74;21200;-43
2022/11/26 01:22:23;;;;;;;28.70;15.65;;;10.70;94.80;;;;;;1924655;74;21205;-42
2022/11/26 01:24:52;;;;;;;27.60;15.80;;;10.70;94.80;;;;;;1924693;74;21106;-42
2022/11/26 01:27:21;;;;;;;26.77;14.90;;;10.70;94.80;;;;;;1924645;74;21569;-42
2022/11/26 01:29:51;;;;;;;27.75;16.40;;;10.70;94.80;;;;;;1924687;74;21002;-43
2022/11/26 01:32:19;;;;;;;27.42;15.72;;;10.70;94.80;;;;;;1924598;74;21198;-43
2022/11/26 01:34:48;;;;;;;28.17;15.25;;;10.60;94.70;;;;;;1924659;74;21121;-42
2022/11/26 01:37:17;;;;;;;31.17;17.07;;;10.60;94.80;;;;;;1924646;74;21644;-43
2022/11/26 01:39:47;;;;;;;28.87;16.65;;;10.60;95.00;;;;;;1924746;74;21322;-42
2022/11/26 01:42:28;;;;;;;26.87;14.55;;;10.60;94.90;;;;;;1924660;74;21076;-43
2022/11/26 01:44:57;;;;;;;23.80;14.68;;;10.60;94.90;;;;;;1923434;74;21165;-43
2022/11/26 01:47:29;;;;;;;31.87;16.75;;;10.60;95.20;;;;;;1924775;74;21184;-43
2022/11/26 01:50:29;;;;;;;27.20;15.23;;;10.60;95.00;;;;;;1924683;74;21007;-43
2022/11/26 01:53:14;;;;;;;27.02;15.08;;;10.60;95.00;;;;;;1924610;74;21193;-42
2022/11/26 01:55:45;;;;;;;28.10;14.35;;;10.60;94.90;;;;;;1924666;74;21260;-43
2022/11/26 01:58:17;;;;;;;29.75;16.23;;;10.60;94.80;;;;;;1924747;74;21635;-42
2022/11/26 02:00:47;;;;;;;25.70;14.80;;;10.60;94.90;;;;;;1924819;74;21634;-43
2022/11/26 02:03:17;;;;;;;24.02;14.00;;;10.60;94.90;;;;;;1924848;74;21299;-42
2022/11/26 02:05:58;;;;;;;28.32;15.72;;;10.60;94.80;;;;;;1924774;74;21265;-42
2022/11/26 02:08:30;;;;;;;28.98;15.43;;;10.50;94.70;;;;;;1924047;74;21231;-42
2022/11/26 02:10:59;;;;;;;26.07;13.38;;;10.50;94.80;;;;;;1924845;74;21644;-42
2022/11/26 02:13:28;;;;;;;28.92;13.20;;;10.40;94.80;;;;;;1924858;74;21274;-43
2022/11/26 02:16:12;;;;;;;30.48;13.93;;;10.40;94.90;;;;;;1924797;74;21572;-42
2022/11/26 02:18:43;;;;;;;27.75;13.28;;;10.30;94.80;;;;;;1924474;74;21193;-43
2022/11/26 02:21:21;;;;;;;24.95;14.78;;;10.30;95.00;;;;;;1924632;74;21079;-42
2022/11/26 02:24:02;;;;;;;23.55;14.50;;;10.40;95.10;;;;;;1924499;74;21160;-44
2022/11/26 02:26:37;;;;;;;23.67;13.40;;;10.40;95.10;;;;;;1924800;74;21198;-42
2022/11/26 02:29:06;;;;;;;;;;;10.40;95.10;;;;;;1925923;74;21232;-42
2022/11/26 02:32:10;;;;;;;24.20;13.85;;;10.40;95.10;;;;;;1888668;74;20559;-44
2022/11/26 02:34:50;;;;;;;23.38;13.83;;;10.50;95.10;;;;;;1924956;74;21154;-43
2022/11/26 02:37:38;;;;;;;27.27;14.20;;;10.50;95.10;;;;;;1924498;74;21082;-42
2022/11/26 02:40:08;;;;;;;25.43;13.40;;;10.50;95.20;;;;;;1924783;74;21220;-42
2022/11/26 02:42:38;;;;;;;27.62;14.47;;;10.60;95.00;;;;;;1924848;74;21195;-43
2022/11/26 02:45:13;;;;;;;28.92;14.78;;;10.60;95.00;;;;;;1924705;74;21712;-42
2022/11/26 02:47:48;;;;;;;28.00;14.40;;;10.60;94.80;;;;;;1924158;74;21082;-42
2022/11/26 02:50:18;;;;;;;25.97;15.28;;;10.60;94.80;;;;;;1924236;74;21098;-41
2022/11/26 02:52:50;;;;;;;24.35;14.05;;;10.60;94.80;;;;;;1924740;74;21123;-43
2022/11/26 02:55:22;;;;;;;24.55;12.30;;;10.50;94.80;;;;;;1924770;74;21267;-43
2022/11/26 02:57:53;;;;;;;23.80;12.95;;;10.50;94.70;;;;;;1924743;74;21090;-44
2022/11/26 03:00:23;;;;;;;23.52;13.70;;;10.50;94.80;;;;;;1924770;74;21217;-44
2022/11/26 03:02:58;;;;;;;25.92;13.15;;;10.50;94.80;;;;;;1924776;74;21110;-42
2022/11/26 03:05:29;;;;;;;30.45;15.72;;;10.50;94.70;;;;;;1922213;74;21102;-42
2022/11/26 03:07:59;;;;;;;34.80;19.15;;;10.40;94.80;;;;;;1924907;74;21106;-44
2022/11/26 03:10:30;;;;;;;29.05;18.27;;;10.30;94.90;;;;;;1924851;74;21118;-41
2022/11/26 03:12:59;;;;;;;28.65;16.55;;;10.30;95.00;;;;;;1924713;74;21198;-43
2022/11/26 03:15:28;;;;;;;28.40;16.75;;;10.30;95.10;;;;;;1924755;74;21175;-42
2022/11/26 03:17:58;;;;;;;27.07;14.68;;;10.30;95.20;;;;;;1924729;74;21235;-42
2022/11/26 03:20:27;;;;;;;26.57;14.55;;;10.40;95.20;;;;;;1924811;74;21118;-43
2022/11/26 03:22:56;;;;;;;25.37;13.83;;;10.40;95.20;;;;;;1924710;74;21193;-42
2022/11/26 03:25:25;;;;;;;27.70;13.72;;;10.40;95.20;;;;;;1924704;74;21197;-42
2022/11/26 03:27:56;;;;;;;23.20;13.50;;;10.40;95.20;;;;;;1924688;74;21236;-41
2022/11/26 03:30:26;;;;;;;23.27;13.32;;;10.50;95.30;;;;;;1924724;74;21197;-42
2022/11/26 03:32:55;;;;;;;24.18;13.80;;;10.50;95.20;;;;;;1924760;74;21322;-42
2022/11/26 03:35:24;;;;;;;25.65;13.48;;;10.50;95.20;;;;;;1924763;74;21118;-41
2022/11/26 03:37:54;;;;;;;22.85;12.73;;;10.50;95.20;;;;;;1924718;74;21208;-42
2022/11/26 03:40:23;;;;;;;22.75;12.60;;;10.50;95.10;;;;;;1924770;74;21022;-42
2022/11/26 03:42:52;;;;;;;30.17;14.58;;;10.50;95.00;;;;;;1924813;74;21288;-45
2022/11/26 03:45:22;;;;;;;23.38;13.68;;;10.50;95.10;;;;;;1924758;74;21228;-45
2022/11/26 03:47:51;;;;;;;24.25;13.10;;;10.40;95.10;;;;;;1924743;74;21273;-42
2022/11/26 03:50:20;;;;;;;25.48;12.98;;;10.40;95.10;;;;;;1924723;74;21280;-43
2022/11/26 03:52:49;;;;;;;20.50;12.28;;;10.40;95.20;;;;;;1924697;74;21082;-42
2022/11/26 03:55:18;;;;;;;24.07;13.80;;;10.40;95.20;;;;;;1924709;74;21078;-45
2022/11/26 03:57:47;;;;;;;20.75;12.65;;;10.40;95.30;;;;;;1924671;74;21169;-44
2022/11/26 04:00:17;;;;;;;19.70;12.85;;;10.40;95.30;;;;;;1924757;74;21105;-43
2022/11/26 04:02:47;;;;;;;22.93;12.90;;;10.40;95.20;;;;;;1924792;74;21177;-42
2022/11/26 04:05:16;;;;;;;22.42;13.35;;;10.40;95.30;;;;;;1924761;74;21273;-42
2022/11/26 04:07:45;;;;;;;19.70;12.28;;;10.40;95.30;;;;;;1924679;74;21261;-42
2022/11/26 04:10:14;;;;;;;21.40;13.25;;;10.40;95.40;;;;;;1924861;73;21217;-42
2022/11/26 04:12:43;;;;;;;23.47;11.25;;;10.40;95.20;;;;;;1924619;74;21232;-43
2022/11/26 04:15:12;;;;;;;22.40;11.93;;;10.30;95.20;;;;;;1924799;74;21196;-43
2022/11/26 04:17:41;;;;;;;23.30;13.13;;;10.40;95.30;;;;;;1924789;74;21532;-42
2022/11/26 04:20:11;;;;;;;24.27;12.55;;;10.40;95.40;;;;;;1924607;74;21138;-42
2022/11/26 04:22:40;;;;;;;19.90;12.55;;;10.40;95.30;;;;;;1924829;74;21590;-44
2022/11/26 04:25:10;;;;;;;20.55;12.98;;;10.40;95.50;;;;;;1924721;74;21199;-43
2022/11/26 04:27:39;;;;;;;22.55;13.05;;;10.40;95.30;;;;;;1924824;74;21078;-43
2022/11/26 04:30:09;;;;;;;22.32;12.78;;;10.40;95.20;;;;;;1924706;74;21050;-43
2022/11/26 04:32:38;;;;;;;24.98;13.25;;;10.30;95.30;;;;;;1924728;74;21145;-43
2022/11/26 04:35:08;;;;;;;20.52;11.73;;;10.30;95.20;;;;;;1924702;74;20999;-42
2022/11/26 04:37:38;;;;;;;21.87;12.43;;;10.20;95.30;;;;;;1924761;74;21275;-42
2022/11/26 04:40:08;;;;;;;23.12;11.95;;;10.20;95.40;;;;;;1924685;74;21193;-42
2022/11/26 04:42:37;;;;;;;23.80;11.78;;;10.20;95.30;;;;;;1924781;74;21334;-42
2022/11/26 04:45:06;;;;;;;26.07;13.55;;;10.10;95.30;;;;;;1924750;74;21058;-42
2022/11/26 04:47:35;;;;;;;21.95;12.28;;;10.10;95.40;;;;;;1924775;74;21190;-42
2022/11/26 04:50:05;;;;;;;19.07;12.33;;;10.10;95.50;;;;;;1924718;74;21117;-44
2022/11/26 04:52:34;;;;;;;25.95;12.85;;;10.10;95.50;;;;;;1924741;74;21194;-44
2022/11/26 04:55:03;;;;;;;20.62;11.95;;;10.10;95.50;;;;;;1924718;74;21603;-42
2022/11/26 04:57:33;;;;;;;20.88;12.65;;;10.10;95.60;;;;;;1924661;74;21217;-42
2022/11/26 05:00:02;;;;;;;23.70;12.82;;;10.10;95.50;;;;;;1924619;74;21129;-44
2022/11/26 05:02:31;;;;;;;29.45;14.85;;;10.00;95.50;;;;;;1924644;74;21181;-45
2022/11/26 05:05:00;;;;;;;25.00;13.88;;;10.10;95.50;;;;;;1924804;74;21154;-43
2022/11/26 05:07:29;;;;;;;22.40;11.88;;;10.10;95.60;;;;;;1924592;74;21110;-42
2022/11/26 05:09:58;;;;;;;22.98;11.95;;;10.10;95.60;;;;;;1924753;74;21070;-43
2022/11/26 05:12:27;;;;;;;23.80;13.55;;;10.10;95.50;;;;;;1924596;74;21725;-43
2022/11/26 05:14:56;;;;;;;23.60;12.37;;;10.10;95.60;;;;;;1924730;74;21255;-44
2022/11/26 05:17:26;;;;;;;24.07;13.25;;;10.00;95.60;;;;;;1924693;74;21142;-42
2022/11/26 05:19:55;;;;;;;20.72;12.15;;;10.00;95.60;;;;;;1924685;74;21209;-43
2022/11/26 05:22:25;;;;;;;22.32;13.48;;;10.00;95.60;;;;;;1924695;74;21168;-42
2022/11/26 05:24:54;;;;;;;26.82;12.60;;;10.00;95.60;;;;;;1924306;74;21322;-42
2022/11/26 05:27:23;;;;;;;22.35;11.85;;;10.10;95.70;;;;;;1924522;74;21158;-42
2022/11/26 05:29:52;;;;;;;28.52;13.20;;;10.10;95.70;;;;;;1924735;74;21092;-42
2022/11/26 05:32:21;;;;;;;27.20;13.00;;;10.00;95.60;;;;;;1924659;74;21265;-45
2022/11/26 05:34:51;;;;;;;24.77;12.33;;;10.10;95.70;;;;;;1924740;74;21126;-41
2022/11/26 05:37:20;;;;;;;27.22;13.28;;;10.10;95.70;;;;;;1924705;74;21199;-42
2022/11/26 05:39:49;;;;;;;28.95;12.40;;;10.10;95.70;;;;;;1924795;74;21132;-43
2022/11/26 05:42:18;;;;;;;17.48;11.68;;;10.10;95.70;;;;;;1924786;74;21062;-41
2022/11/26 05:44:47;;;;;;;36.30;21.57;;;10.10;95.70;;;;;;1924821;74;21639;-44
2022/11/26 05:47:16;;;;;;;25.45;14.13;;;10.00;95.70;;;;;;1924761;74;21292;-43
2022/11/26 05:49:46;;;;;;;27.58;14.18;;;10.00;95.60;;;;;;1924756;74;21213;-42
2022/11/26 05:52:15;;;;;;;22.65;12.35;;;10.10;95.70;;;;;;1924818;74;21196;-42
2022/11/26 05:54:44;;;;;;;25.80;11.85;;;10.10;95.70;;;;;;1924791;74;21129;-42
2022/11/26 05:57:13;;;;;;;31.48;13.25;;;10.10;95.70;;;;;;1924723;74;21682;-43
2022/11/26 05:59:43;;;;;;;32.05;14.03;;;10.10;95.60;;;;;;1912508;74;21356;-45
2022/11/26 06:02:12;;;;;;;22.45;12.45;;;10.20;95.60;;;;;;1905228;74;21275;-43
2022/11/26 06:04:42;;;;;;;22.98;12.37;;;10.20;95.60;;;;;;1905195;75;21234;-42
2022/11/26 06:07:11;;;;;;;26.37;13.00;;;10.20;95.60;;;;;;1905178;75;21386;-43
2022/11/26 06:09:40;;;;;;;23.05;12.60;;;10.20;95.60;;;;;;1905364;74;21115;-44
2022/11/26 06:12:09;;;;;;;23.65;11.68;;;10.20;95.60;;;;;;1905220;75;21233;-42
2022/11/26 06:14:38;;;;;;;25.25;13.55;;;10.30;95.70;;;;;;1905328;74;21233;-41
2022/11/26 06:17:07;;;;;;;24.72;12.43;;;10.30;95.60;;;;;;1905281;74;21192;-42
2022/11/26 06:19:36;;;;;;;22.90;12.60;;;10.30;95.70;;;;;;1905433;75;21506;-41
2022/11/26 06:22:05;;;;;;;24.60;11.73;;;10.30;95.70;;;;;;1905414;75;21281;-42
2022/11/26 06:24:35;;;;;;;24.47;12.25;;;10.30;95.80;;;;;;1905368;74;21196;-42
2022/11/26 06:27:04;;;;;;;24.55;13.55;;;10.30;95.70;;;;;;1905429;75;21204;-43
2022/11/26 06:29:33;;;;;;;28.07;13.03;;;10.30;95.70;;;;;;1905365;74;21067;-43
2022/11/26 06:32:02;;;;;;;22.58;11.20;;;10.40;95.70;;;;;;1905288;75;21625;-42
2022/11/26 06:34:32;;;;;;;24.50;13.25;;;10.40;95.90;;;;;;1905332;75;21233;-43
2022/11/26 06:37:00;;;;;;;28.65;13.30;;;10.40;96.10;;;;;;1905419;75;21130;-41
2022/11/26 06:39:29;;;;;;;20.17;10.98;;;10.40;95.80;;;;;;1905363;75;21561;-41
2022/11/26 06:41:58;;;;;;;25.15;12.75;;;10.30;96.00;;;;;;1905264;75;21407;-43
2022/11/26 06:44:27;;;;;;;31.02;13.40;;;10.20;95.90;;;;;;1905340;74;21320;-41
2022/11/26 06:46:56;;;;;;;28.00;14.73;;;10.20;96.10;;;;;;1905302;75;21263;-42
2022/11/26 06:49:25;;;;;;;34.33;15.75;;;10.20;96.20;;;;;;1905448;75;21160;-43
2022/11/26 06:51:54;;;;;;;27.67;14.53;;;10.20;96.10;;;;;;1905413;75;21083;-42
2022/11/26 06:54:24;;;;;;;28.55;15.78;;;10.20;96.30;;;;;;1905424;75;21089;-41
2022/11/26 06:56:52;;;;;;;28.90;14.70;;;10.20;96.30;;;;;;1905240;75;21255;-42
2022/11/26 06:59:22;;;;;;;27.62;13.10;;;10.20;96.20;;;;;;1905335;75;21099;-44
2022/11/26 07:01:51;;;;;;;25.80;13.98;;;10.20;96.30;;;;;;1905323;75;21210;-41
2022/11/26 07:04:20;;;;;;;25.12;13.28;;;10.20;96.30;;;;;;1905325;74;21353;-42
2022/11/26 07:06:49;;;;;;;29.15;14.53;;;10.20;96.40;;;;;;1905282;75;21143;-41
2022/11/26 07:09:18;;;;;;;28.92;13.80;;;10.30;96.50;;;;;;1905327;75;21150;-42
2022/11/26 07:11:48;;;;;;;29.05;15.72;;;10.30;96.50;;;;;;1905259;75;21222;-44
2022/11/26 07:14:18;;;;;;;28.30;15.00;;;10.30;96.40;;;;;;1905321;75;21149;-42
2022/11/26 07:16:47;;;;;;;26.82;14.85;;;10.30;96.40;;;;;;1905337;75;21184;-42
2022/11/26 07:19:16;;;;;;;25.48;12.75;;;10.20;96.40;;;;;;1905214;75;21260;-42
2022/11/26 07:21:45;;;;;;;32.73;16.65;;;10.30;96.50;;;;;;1905195;75;21317;-44
2022/11/26 07:24:15;;;;;;;32.15;15.78;;;10.30;96.40;;;;;;1905234;75;21261;-44
2022/11/26 07:26:44;;;;;;;32.75;15.23;;;10.30;96.30;;;;;;1905313;75;21091;-42
2022/11/26 07:29:13;;;;;;;32.88;16.10;;;10.30;96.40;;;;;;1905282;75;21274;-44
2022/11/26 07:31:42;;;;;;;34.13;14.87;;;10.40;96.10;;;;;;1905429;75;21130;-45
2022/11/26 07:34:11;;;;;;;34.85;14.65;;;10.40;96.30;;;;;;1905163;75;21309;-41
2022/11/26 07:36:42;;;;;;;37.55;16.60;;;10.40;96.20;;;;;;1905290;75;21163;-40
2022/11/26 07:39:12;;;;;;;39.03;21.62;;;10.40;96.20;;;;;;1905315;75;21174;-42
2022/11/26 07:41:41;;;;;;;32.00;16.37;;;10.40;96.20;;;;;;1905177;75;21079;-41
2022/11/26 07:44:14;;;;;;;29.85;13.90;;;10.50;96.30;;;;;;1905392;75;21331;-42
2022/11/26 07:46:44;;;;;;;31.12;16.02;;;10.50;96.40;;;;;;1905186;75;21207;-42
2022/11/26 07:49:13;;;;;;;41.02;17.30;;;10.40;96.20;;;;;;1905329;75;21202;-42
2022/11/26 07:51:42;;;;;;;29.77;15.03;;;10.50;96.20;;;;;;1905254;74;21114;-41
2022/11/26 07:54:11;;;;;;;32.25;14.43;;;10.50;96.40;;;;;;1905285;74;21122;-42
2022/11/26 07:56:40;;;;;;;27.90;14.58;;;10.40;96.30;;;;;;1905308;75;21292;-43
2022/11/26 07:59:11;;;;;;;32.55;15.32;;;10.40;96.40;;;;;;1905271;75;21189;-42
2022/11/26 08:01:40;;;;;;;28.42;14.10;;;10.50;96.50;;;;;;1922868;74;21265;-42
2022/11/26 08:04:09;;;;;;;29.18;15.00;;;10.40;96.40;;;;;;1924709;74;21122;-43
2022/11/26 08:06:38;;;;;;;33.18;15.50;;;10.40;96.40;;;;;;1924722;74;21410;-43
2022/11/26 08:09:07;;;;;;;33.63;15.10;;;10.40;96.40;;;;;;1924785;74;21285;-42
2022/11/26 08:11:37;;;;;;;29.48;13.60;;;10.40;96.30;;;;;;1924631;74;21189;-43
2022/11/26 08:14:08;;;;;;;30.97;15.13;;;10.50;96.60;;;;;;1924760;74;21138;-42
2022/11/26 08:16:38;;;;;;;34.73;15.72;;;10.50;96.60;;;;;;1924710;74;21101;-41
2022/11/26 08:19:09;;;;;;;28.38;14.15;;;10.50;96.40;;;;;;1924745;74;21193;-42
2022/11/26 08:21:38;;;;;;;30.65;16.10;;;10.50;96.40;;;;;;1924673;74;21677;-41
2022/11/26 08:24:09;;;;;;;34.88;16.00;;;10.50;96.30;;;;;;1924608;74;21200;-41
2022/11/26 08:26:38;;;;;;;30.27;13.43;;;10.50;96.40;;;;;;1924502;74;21250;-41
2022/11/26 08:29:08;;;;;;;30.70;15.50;;;10.50;96.60;;;;;;1924703;74;21063;-41
2022/11/26 08:31:39;;;;;;;39.10;16.40;;;10.50;96.60;;;;;;1924593;74;21580;-42
2022/11/26 08:34:08;;;;;;;33.05;17.80;;;10.40;96.60;;;;;;1924737;74;21070;-43
2022/11/26 08:36:37;;;;;;;39.30;16.37;;;10.50;96.60;;;;;;1924631;74;21576;-41
2022/11/26 08:39:06;;;;;;;34.65;16.95;;;10.40;96.60;;;;;;1924784;74;21141;-41
2022/11/26 08:41:35;;;;;;;31.48;14.60;;;10.40;96.70;;;;;;1924669;74;21497;-42
2022/11/26 08:44:04;;;;;;;35.73;16.45;;;10.40;96.60;;;;;;1924762;74;21125;-43
2022/11/26 08:46:33;;;;;;;31.07;18.30;;;10.50;96.70;;;;;;1924661;74;21403;-44
2022/11/26 08:49:02;;;;;;;33.25;16.57;;;10.40;96.60;;;;;;1924693;74;21192;-41
2022/11/26 08:51:32;;;;;;;26.35;12.68;;;10.50;96.80;;;;;;1924708;74;21050;-41
2022/11/26 08:54:01;;;;;;;26.48;14.68;;;10.50;96.80;;;;;;1924694;74;21545;-42
2022/11/26 08:56:30;;;;;;;27.70;14.18;;;10.50;96.60;;;;;;1924647;74;21213;-41
2022/11/26 08:58:59;;;;;;;29.90;16.00;;;10.50;96.80;;;;;;1924638;74;21572;-45
2022/11/26 09:01:31;;;;;;;34.48;14.68;;;10.50;96.70;;;;;;1924620;74;21640;-41
2022/11/26 09:04:01;;;;;;;31.10;15.18;;;10.50;96.80;;;;;;1924732;74;21249;-43
2022/11/26 09:06:32;;;;;;;30.72;15.08;;;10.50;96.70;;;;;;1924823;74;21142;-43
2022/11/26 09:09:12;;;;;;;27.67;14.68;;;10.50;96.70;;;;;;1924736;74;21114;-42
2022/11/26 09:11:50;;;;;;;27.30;14.95;;;10.50;96.80;;;;;;1924708;74;21096;-43
2022/11/26 09:14:23;;;;;;;28.05;14.80;;;10.50;96.70;;;;;;1924715;74;21074;-42
2022/11/26 09:16:53;;;;;;;24.60;13.03;;;10.50;96.70;;;;;;1924725;74;21195;-42
2022/11/26 09:19:23;;;;;;;20.35;11.40;;;10.50;96.80;;;;;;1924787;74;21201;-41
2022/11/26 09:21:52;;;;;;;20.65;8.20;;;10.50;96.80;;;;;;1924678;74;21205;-41
2022/11/26 09:24:21;;;;;;;19.37;9.83;;;10.50;96.80;;;;;;1924723;74;21150;-44
2022/11/26 09:26:51;;;;;;;19.42;10.78;;;10.40;96.80;;;;;;1931080;74;21266;-43
2022/11/26 09:29:22;;;;;;;25.82;13.35;;;10.40;96.70;;;;;;1924677;74;21233;-42
2022/11/26 09:31:52;;;;;;;17.75;10.03;;;10.40;96.80;;;;;;1924706;74;21118;-42
2022/11/26 09:34:21;;;;;;;22.10;10.08;;;10.40;96.70;;;;;;1924738;74;21255;-42
2022/11/26 09:36:50;;;;;;;21.90;10.95;;;10.40;96.70;;;;;;1924729;74;21078;-44
2022/11/26 09:39:19;;;;;;;18.77;9.13;;;10.40;96.60;;;;;;1924692;74;21014;-45
2022/11/26 09:42:00;;;;;;;18.42;9.70;;;10.40;96.60;;;;;;1924756;74;21066;-43
2022/11/26 09:44:38;;;;;;;23.20;10.55;;;10.50;96.60;;;;;;1924530;74;21063;-42
2022/11/26 09:47:12;;;;;;;20.50;9.93;;;10.40;96.50;;;;;;1924141;74;21211;-43
2022/11/26 09:50:08;;;;;;;21.25;10.65;;;10.50;96.80;;;;;;1924904;74;21225;-43
2022/11/26 09:52:55;;;;;;;20.40;10.35;;;10.40;96.50;;;;;;1924788;74;21074;-42
2022/11/26 09:55:37;;;;;;;22.98;10.50;;;10.40;96.60;;;;;;1924159;74;21150;-42
2022/11/26 09:58:32;;;;;;;22.98;10.80;;;10.40;96.60;;;;;;1924743;74;21278;-43
2022/11/26 10:01:03;;;;;;;24.27;11.00;;;10.40;96.60;;;;;;1915394;74;21489;-43
2022/11/26 10:03:37;;;;;;;20.43;10.82;;;10.50;96.60;;;;;;1924745;74;21094;-42
2022/11/26 10:06:31;;;;;;;21.37;11.00;;;10.50;96.60;;;;;;1925127;74;21195;-41
2022/11/26 10:09:10;;;;;;;36.42;12.63;;;10.50;96.70;;;;;;1924365;74;21201;-43
2022/11/26 10:11:53;;;;;;;30.80;13.55;;;10.50;96.70;;;;;;1924652;74;21185;-42
2022/11/26 10:14:51;;;;;;;34.95;15.65;;;10.40;96.70;;;;;;1924398;74;21114;-42
2022/11/26 10:17:34;;;;;;;31.42;15.00;;;10.40;96.70;;;;;;1924651;74;21269;-43
2022/11/26 10:20:23;;;;;;;33.05;13.50;;;10.40;96.60;;;;;;1924712;74;21338;-45
2022/11/26 10:22:54;;;;;;;32.45;14.68;;;10.40;96.80;;;;;;1924675;74;21347;-43
2022/11/26 10:25:26;;;;;;;27.00;13.43;;;10.30;96.70;;;;;;1924804;74;21470;-41
2022/11/26 10:27:58;;;;;;;32.48;15.78;;;10.30;96.90;;;;;;1924713;74;21537;-42
2022/11/26 10:30:29;;;;;;;21.12;12.18;;;10.30;96.90;;;;;;1924488;74;21185;-42
2022/11/26 10:33:00;;;;;;;36.45;14.75;;;10.20;96.90;;;;;;1924539;74;21181;-42
2022/11/26 10:35:30;;;;;;;33.98;14.33;;;10.30;96.90;;;;;;1924545;74;21324;-42
2022/11/26 10:37:59;;;;;;;31.30;15.93;;;10.20;97.00;;;;;;1924725;74;21177;-42
2022/11/26 10:40:31;;;;;;;33.42;15.70;;;10.20;97.00;;;;;;1924621;74;21102;-42
2022/11/26 10:43:14;;;;;;;28.15;13.28;;;10.20;96.90;;;;;;1924702;74;21127;-42
2022/11/26 10:45:49;;;;;;;36.48;16.37;;;10.20;97.00;;;;;;1920904;74;21320;-43
2022/11/26 10:48:23;;;;;;;34.65;15.72;;;10.20;97.00;;;;;;1924974;74;21273;-42
2022/11/26 10:51:01;;;;;;;37.95;16.65;;;10.20;96.90;;;;;;1924835;74;21135;-43
2022/11/26 10:53:36;;;;;;;29.90;14.80;;;10.20;96.90;;;;;;1924709;74;21236;-42
2022/11/26 10:56:07;;;;;;;27.70;13.68;;;10.20;97.10;;;;;;1922713;74;21318;-42
2022/11/26 10:58:41;;;;;;;31.85;16.05;;;10.20;97.10;;;;;;1924735;74;21303;-43
2022/11/26 11:01:14;;;;;;;27.70;14.25;;;10.20;97.10;;;;;;1924794;74;21513;-45
2022/11/26 11:03:54;;;;;;;32.75;16.25;;;10.20;97.10;;;;;;1924686;74;21493;-43
2022/11/26 11:06:26;;;;;;;32.48;15.58;;;10.20;97.20;;;;;;1924173;74;21489;-43
2022/11/26 11:08:56;;;;;;;37.35;18.20;;;10.10;97.10;;;;;;1924683;74;21128;-42
2022/11/26 11:11:27;;;;;;;43.50;18.60;;;10.10;97.10;;;;;;1924771;74;21113;-43
2022/11/26 11:13:57;;;;;;;28.00;13.13;;;10.10;97.10;;;;;;1924869;74;21166;-42
2022/11/26 11:16:40;;;;;;;35.98;14.78;;;10.10;97.20;;;;;;1924756;74;21074;-42
2022/11/26 11:19:20;;;;;;;37.38;16.70;;;10.10;97.10;;;;;;1924829;74;21263;-43
2022/11/26 11:21:49;;;;;;;36.75;16.55;;;10.10;97.30;;;;;;1924745;74;21179;-45
2022/11/26 11:24:26;;;;;;;42.67;18.23;;;10.10;97.40;;;;;;1924701;74;21241;-47
2022/11/26 11:26:56;;;;;;;29.70;15.90;;;10.10;97.10;;;;;;1924708;74;21177;-43
2022/11/26 11:29:28;;;;;;;31.97;15.98;;;10.10;97.10;;;;;;1924575;74;21332;-44
2022/11/26 11:31:57;;;;;;;41.28;17.98;;;10.10;97.10;;;;;;1924805;74;21698;-43
2022/11/26 11:34:38;;;;;;;32.03;15.35;;;10.10;97.00;;;;;;1924848;74;21207;-42
2022/11/26 11:37:19;;;;;;;33.40;16.12;;;10.10;97.10;;;;;;1924737;74;21169;-45
2022/11/26 11:39:57;;;;;;;35.13;18.50;;;10.10;97.20;;;;;;1924651;74;21197;-42
2022/11/26 11:42:28;;;;;;;40.70;18.62;;;10.20;97.00;;;;;;1914848;74;21260;-42
2022/11/26 11:44:59;;;;;;;40.17;16.82;;;10.20;96.90;;;;;;1924795;74;21146;-46
2022/11/26 11:47:34;;;;;;;41.30;18.42;;;10.20;96.90;;;;;;1924641;74;21093;-46
2022/11/26 11:50:40;;;;;;;33.75;15.10;;;10.20;96.90;;;;;;1924784;74;21237;-43
2022/11/26 11:53:31;;;;;;;39.98;18.55;;;10.20;96.90;;;;;;1924511;74;21300;-45
2022/11/26 11:56:12;;;;;;;39.78;18.80;;;10.20;96.90;;;;;;1924724;74;21078;-45
2022/11/26 11:59:00;;;;;;;36.58;15.32;;;10.20;96.90;;;;;;1924709;74;21223;-44
2022/11/26 12:01:54;;;;;;;22.75;11.18;;;10.20;97.00;;;;;;1924663;74;21205;-44
2022/11/26 12:04:41;;;;;;;20.15;10.68;;;10.30;97.60;;;;;;1891652;75;21183;-46
2022/11/26 12:07:18;;;;;;;34.67;17.92;;;10.50;97.60;;;;;;1888513;75;21337;-44
2022/11/26 12:09:56;;;;;;;31.95;16.20;;;10.70;97.50;;;;;;1886583;74;21073;-41
2022/11/26 12:12:31;;;;;;;36.83;16.70;;;10.90;97.30;;;;;;1889030;75;21171;-39
2022/11/26 12:15:01;;;;;;;;;;;11.10;97.10;;;;;;1890670;75;21188;-40
2022/11/26 12:17:41;;;;;;;16.42;9.20;;;11.20;96.90;;;;;;1886401;74;20610;-39
2022/11/26 12:20:15;;;;;;;32.55;16.07;;;11.30;96.10;;;;;;1873762;75;21146;-39
2022/11/26 12:23:00;;;;;;;29.60;14.07;;;11.30;95.50;;;;;;1872207;76;21360;-40
2022/11/26 12:25:34;;;;;;;32.98;16.45;;;11.10;95.10;;;;;;1872008;76;21386;-40
2022/11/26 12:28:31;;;;;;;30.40;12.85;;;10.80;95.50;;;;;;1872907;77;21118;-40
2022/11/26 12:31:12;;;;;;;32.70;16.57;;;10.60;95.60;;;;;;1872857;76;21088;-40
2022/11/26 12:34:01;;;;;;;37.28;16.80;;;10.50;96.20;;;;;;1872798;76;21218;-40
2022/11/26 12:36:34;;;;;;;40.80;17.80;;;10.40;96.20;;;;;;1872681;76;21310;-40
2022/11/26 12:39:06;;;;;;;48.33;24.35;;;10.30;96.30;;;;;;1872665;76;21146;-41
2022/11/26 12:41:41;;;;;;;37.17;19.40;;;10.30;96.40;;;;;;1872645;76;21667;-39
2022/11/26 12:44:34;;;;;;;32.50;15.72;;;10.30;96.40;;;;;;1873136;77;21077;-40
2022/11/26 12:47:18;;;;;;;30.20;16.40;;;10.20;96.40;;;;;;1872958;76;21073;-39
2022/11/26 12:50:20;;;;;;;37.93;15.75;;;10.20;96.40;;;;;;1872891;77;21221;-39
2022/11/26 12:53:17;;;;;;;28.12;15.23;;;10.20;96.50;;;;;;1872930;76;21599;-40
2022/11/26 12:55:52;;;;;;;36.40;15.95;;;10.20;96.50;;;;;;1872908;77;21191;-39